Portada
METAR-TAF:

METAR-TAF

Aeroports :

Phnom Penh, Cambodja

latitud: 11-33N, longitud: 104-51E, altitud: 10 m

Observació

L'informe es va fer fa 42 minuts, a les 12:30 UTC
Vent 7 kt del Sud/Sud-Oest
Temperatura 31°C
Humitat 71%
Pressió 1005 hPa
Visibilitat: 9000 m
Núvols disperses a una alçada de 1500 ft

METAR: VDPP 141230Z 21007KT 9000 SCT015 31/25 Q1005

Hora: 20:12 (13:12 UTC)

Pronòstic

L'informe es va fer fa 2 hores i 12 minuts, a les 11:00 UTC
Pronòstic vàlid del 14 a les 12 UTC al 15 a les 06 UTC
Vent 6 kt del Sud
Visibilitat 10 km o més
Núvols disperses a una alçada de 1700 ft
Temporalment
l' 14 a les 11 UTC al 14 a les 16 UTC
Núvols disperses a una alçada de 1500 ft
Escasses núvols a una alçada de 1700 ft, Cumulonimbus.
Núvols disperses a una alçada de 4000 ft

TAF: VDPP 141100Z 1412/1506 19006KT 9999 SCT017 TEMPO 1411/1416 SCT015 FEW017CB SCT040

Observacions i pronòstics meteorològics de més de 4000 aeroports (METAR i TAF).

Les estacions disponibles són els punts grocs i vermells al mapa.

Posi el ratolí al punt desitjat per veure el nom de l'estació.

Feu clic per veure les observacions i els pronòstics meteorològics.

Per canviar el mapa: feu clic els botons verds amb una creu de color negre per apropar; al botó verd amb un guió per allunyar la imatge; o en les fletxes verdes per a mapes adjacents.


METAR-TAF: